Time;durP1;ratioP1;P1;durP2;ratioP2;P2;SDS_P1;SDS_P2;PMS_P1;PMS_P2;Temp;Humidity;BMP_temperature;BMP_pressure;BME280_temperature;BME280_humidity;BME280_pressure;Samples;Min_cycle;Max_cycle;Signal;HPM_P1;HPM_P2
2022/05/17 00:00:34;;;;;;;6.88;2.03;;;;;;;;;;5103215;28;20056;-66
2022/05/17 00:03:00;;;;;;;4.40;1.92;;;;;;;;;;5105455;28;20020;-65
2022/05/17 00:05:27;;;;;;;6.32;2.17;;;;;;;;;;5106917;28;20030;-65
2022/05/17 00:07:52;;;;;;;7.30;2.13;;;;;;;;;;5105749;28;20218;-67
2022/05/17 00:10:18;;;;;;;4.40;1.95;;;;;;;;;;5102371;28;20205;-65
2022/05/17 00:12:44;;;;;;;5.40;2.20;;;;;;;;;;5104406;28;20031;-65
2022/05/17 00:15:09;;;;;;;5.10;1.73;;;;;;;;;;5102117;28;20023;-64
2022/05/17 00:17:36;;;;;;;5.20;2.53;;;;;;;;;;5108998;28;20031;-65
2022/05/17 00:20:01;;;;;;;4.50;1.80;;;;;;;;;;5103102;28;20106;-65
2022/05/17 00:22:26;;;;;;;7.60;2.40;;;;;;;;;;5104840;28;20497;-65
2022/05/17 00:24:51;;;;;;;6.07;2.20;;;;;;;;;;5101217;28;20030;-65
2022/05/17 00:27:17;;;;;;;5.45;2.20;;;;;;;;;;5102192;28;20034;-65
2022/05/17 00:29:42;;;;;;;5.50;2.05;;;;;;;;;;5099107;28;20077;-65
2022/05/17 00:32:07;;;;;;;4.30;2.10;;;;;;;;;;5088138;28;20050;-65
2022/05/17 00:34:33;;;;;;;5.75;2.33;;;;;;;;;;5083912;28;20067;-66
2022/05/17 00:36:58;;;;;;;3.83;2.08;;;;;;;;;;5083137;28;20101;-66
2022/05/17 00:39:23;;;;;;;7.75;1.90;;;;;;;;;;5082001;28;20127;-65
2022/05/17 00:41:49;;;;;;;5.28;2.50;;;;;;;;;;5081052;28;20024;-67
2022/05/17 00:46:58;;;;;;;7.05;2.35;;;;;;;;;;5099702;28;20619;-65
2022/05/17 00:49:35;;;;;;;6.87;2.17;;;;;;;;;;5105183;28;20031;-66
2022/05/17 00:52:04;;;;;;;5.32;2.17;;;;;;;;;;5103112;28;20701;-66
2022/05/17 00:54:30;;;;;;;5.57;2.03;;;;;;;;;;5102529;28;20020;-65
2022/05/17 00:57:00;;;;;;;5.97;2.28;;;;;;;;;;5089025;28;20096;-66
2022/05/17 00:59:25;;;;;;;7.82;2.35;;;;;;;;;;5082300;28;20016;-66
2022/05/17 01:01:50;;;;;;;7.38;2.60;;;;;;;;;;5095610;28;20469;-65
2022/05/17 01:04:20;;;;;;;4.20;1.90;;;;;;;;;;5104492;28;20366;-65
2022/05/17 01:06:48;;;;;;;7.25;2.35;;;;;;;;;;5093297;28;20036;-65
2022/05/17 01:09:13;;;;;;;7.18;2.30;;;;;;;;;;5081590;28;20028;-65
2022/05/17 01:11:39;;;;;;;5.28;2.08;;;;;;;;;;5082024;28;20034;-65
2022/05/17 01:16:48;;;;;;;4.68;2.30;;;;;;;;;;5087842;28;20089;-66
2022/05/17 01:19:14;;;;;;;6.75;2.47;;;;;;;;;;5087725;28;20036;-66
2022/05/17 01:21:39;;;;;;;5.60;2.40;;;;;;;;;;5071437;28;20093;-66
2022/05/17 01:24:05;;;;;;;7.65;2.80;;;;;;;;;;5083903;28;20208;-66
2022/05/17 01:26:31;;;;;;;5.20;1.95;;;;;;;;;;5086634;28;20482;-65
2022/05/17 01:28:56;;;;;;;7.95;2.80;;;;;;;;;;5084266;28;20065;-64
2022/05/17 01:31:21;;;;;;;4.45;2.10;;;;;;;;;;5087931;28;20023;-65
2022/05/17 01:33:47;;;;;;;8.00;2.33;;;;;;;;;;5094876;28;20392;-64
2022/05/17 01:36:12;;;;;;;6.78;2.50;;;;;;;;;;5111437;28;20384;-65
2022/05/17 01:38:38;;;;;;;5.65;2.15;;;;;;;;;;5105023;27;20458;-65
2022/05/17 01:41:04;;;;;;;6.25;2.08;;;;;;;;;;5094788;28;20235;-66
2022/05/17 01:43:29;;;;;;;6.35;2.40;;;;;;;;;;5090717;28;20058;-64
2022/05/17 01:45:55;;;;;;;4.18;2.10;;;;;;;;;;5100776;28;20034;-67
2022/05/17 01:48:20;;;;;;;6.05;2.50;;;;;;;;;;5085325;28;20097;-64
2022/05/17 01:50:46;;;;;;;9.25;2.95;;;;;;;;;;5101721;28;20023;-65
2022/05/17 01:53:12;;;;;;;6.10;2.70;;;;;;;;;;5071258;28;20382;-65
2022/05/17 01:55:38;;;;;;;6.25;2.50;;;;;;;;;;5080254;28;20023;-65
2022/05/17 01:58:03;;;;;;;5.60;2.50;;;;;;;;;;5087672;28;20012;-65
2022/05/17 02:00:29;;;;;;;3.90;2.30;;;;;;;;;;5085866;28;20028;-64
2022/05/17 02:02:54;;;;;;;7.80;2.22;;;;;;;;;;5087704;28;20542;-66
2022/05/17 02:05:23;;;;;;;6.40;2.53;;;;;;;;;;5086217;28;20024;-66
2022/05/17 02:07:50;;;;;;;10.10;2.88;;;;;;;;;;5085900;28;20044;-67
2022/05/17 02:10:20;;;;;;;8.75;2.40;;;;;;;;;;5085363;28;20046;-65
2022/05/17 02:12:46;;;;;;;5.38;2.40;;;;;;;;;;5086318;28;20020;-65
2022/05/17 02:15:12;;;;;;;7.88;2.60;;;;;;;;;;5065595;28;20031;-65
2022/05/17 02:17:38;;;;;;;6.47;2.50;;;;;;;;;;5087114;28;20016;-64
2022/05/17 02:20:04;;;;;;;7.03;2.75;;;;;;;;;;5086167;28;20492;-65
2022/05/17 02:22:30;;;;;;;7.00;2.58;;;;;;;;;;5086497;28;20404;-66
2022/05/17 02:24:55;;;;;;;7.50;2.97;;;;;;;;;;5081666;28;20081;-66
2022/05/17 02:27:20;;;;;;;8.20;3.15;;;;;;;;;;5093039;28;20019;-65
2022/05/17 02:29:45;;;;;;;8.13;2.80;;;;;;;;;;5087579;28;20077;-65
2022/05/17 02:32:11;;;;;;;7.85;2.50;;;;;;;;;;5087954;28;20028;-66
2022/05/17 02:34:36;;;;;;;13.48;3.17;;;;;;;;;;5086181;28;20046;-66
2022/05/17 02:37:03;;;;;;;9.00;3.38;;;;;;;;;;5087547;28;20378;-65
2022/05/17 02:39:28;;;;;;;9.25;3.35;;;;;;;;;;5085240;28;20021;-66
2022/05/17 02:41:53;;;;;;;12.18;3.90;;;;;;;;;;5085110;28;20466;-66
2022/05/17 02:44:19;;;;;;;10.32;2.80;;;;;;;;;;5084816;28;20347;-66
2022/05/17 02:46:44;;;;;;;10.48;3.03;;;;;;;;;;5087053;28;20091;-66
2022/05/17 02:49:09;;;;;;;11.38;3.30;;;;;;;;;;5084285;28;20471;-66
2022/05/17 02:51:35;;;;;;;12.80;3.10;;;;;;;;;;5086642;28;20020;-67
2022/05/17 02:54:00;;;;;;;8.20;3.20;;;;;;;;;;5084299;28;20708;-65
2022/05/17 02:56:26;;;;;;;8.57;3.08;;;;;;;;;;5083478;28;20081;-65
2022/05/17 02:58:55;;;;;;;7.50;2.70;;;;;;;;;;5081974;28;20100;-65
2022/05/17 03:01:20;;;;;;;9.80;2.63;;;;;;;;;;5095802;28;20027;-65
2022/05/17 03:03:46;;;;;;;8.70;3.00;;;;;;;;;;5106738;28;20065;-65
2022/05/17 03:06:11;;;;;;;8.07;2.95;;;;;;;;;;5104159;28;20598;-65
2022/05/17 03:08:37;;;;;;;10.13;3.15;;;;;;;;;;5098220;28;20423;-65
2022/05/17 03:11:03;;;;;;;6.28;3.13;;;;;;;;;;5082561;28;20133;-65
2022/05/17 03:13:28;;;;;;;8.70;3.08;;;;;;;;;;5084008;28;20028;-66
2022/05/17 03:15:53;;;;;;;5.43;2.67;;;;;;;;;;5082786;28;20071;-65
2022/05/17 03:18:19;;;;;;;8.70;3.05;;;;;;;;;;5084128;28;20024;-65
2022/05/17 03:20:45;;;;;;;12.30;3.25;;;;;;;;;;5083997;28;20008;-65
2022/05/17 03:23:10;;;;;;;7.15;2.78;;;;;;;;;;5085528;28;20585;-65
2022/05/17 03:25:35;;;;;;;9.75;3.03;;;;;;;;;;5081819;28;20110;-65
2022/05/17 03:28:01;;;;;;;10.02;3.60;;;;;;;;;;5084201;28;20043;-66
2022/05/17 03:30:27;;;;;;;8.07;3.35;;;;;;;;;;5083876;28;20020;-65
2022/05/17 03:32:53;;;;;;;11.50;3.20;;;;;;;;;;5085532;28;20016;-65
2022/05/17 03:35:18;;;;;;;8.98;3.10;;;;;;;;;;5081373;28;20047;-65
2022/05/17 03:37:43;;;;;;;10.77;3.38;;;;;;;;;;5085384;28;20176;-66
2022/05/17 03:40:10;;;;;;;10.68;3.65;;;;;;;;;;5076891;28;20405;-66
2022/05/17 03:42:35;;;;;;;5.97;2.20;;;;;;;;;;5103687;28;20516;-65
2022/05/17 03:45:00;;;;;;;8.32;3.17;;;;;;;;;;5088942;28;20319;-66
2022/05/17 03:47:26;;;;;;;10.48;3.55;;;;;;;;;;5085404;28;20360;-65
2022/05/17 03:49:51;;;;;;;6.70;3.10;;;;;;;;;;5086586;28;20027;-65
2022/05/17 03:52:16;;;;;;;7.93;3.20;;;;;;;;;;5085368;28;20051;-65
2022/05/17 03:54:41;;;;;;;6.90;3.20;;;;;;;;;;5083873;28;20020;-65
2022/05/17 03:57:07;;;;;;;8.10;2.95;;;;;;;;;;5083050;28;20074;-66
2022/05/17 03:59:32;;;;;;;6.20;2.92;;;;;;;;;;5083653;28;20028;-65
2022/05/17 04:01:58;;;;;;;7.28;2.28;;;;;;;;;;5085302;28;20028;-66
2022/05/17 04:04:23;;;;;;;7.90;2.67;;;;;;;;;;5084915;28;20069;-65
2022/05/17 04:06:49;;;;;;;5.65;2.92;;;;;;;;;;5087387;28;20131;-64
2022/05/17 04:09:14;;;;;;;8.00;2.60;;;;;;;;;;5082042;28;20404;-64
2022/05/17 04:11:40;;;;;;;7.18;2.60;;;;;;;;;;5070441;28;20019;-64
2022/05/17 04:14:06;;;;;;;8.52;3.05;;;;;;;;;;5100005;28;20136;-65
2022/05/17 04:16:33;;;;;;;7.90;2.90;;;;;;;;;;5098057;28;20055;-65
2022/05/17 04:18:59;;;;;;;8.45;2.80;;;;;;;;;;5105152;28;20017;-65
2022/05/17 04:21:24;;;;;;;5.22;2.28;;;;;;;;;;5104566;28;20023;-66
2022/05/17 04:23:49;;;;;;;7.53;2.55;;;;;;;;;;5105379;28;20103;-66
2022/05/17 04:26:14;;;;;;;8.77;2.83;;;;;;;;;;5101806;28;20200;-65
2022/05/17 04:28:40;;;;;;;6.40;2.63;;;;;;;;;;5104959;28;20023;-65
2022/05/17 04:31:05;;;;;;;5.35;2.55;;;;;;;;;;5105459;28;20031;-64
2022/05/17 04:33:31;;;;;;;7.63;2.90;;;;;;;;;;5105637;28;20023;-64
2022/05/17 04:35:56;;;;;;;9.10;2.70;;;;;;;;;;5106183;28;20478;-65
2022/05/17 04:38:21;;;;;;;7.43;2.55;;;;;;;;;;5103381;28;20381;-65
2022/05/17 04:40:48;;;;;;;6.68;2.55;;;;;;;;;;5086022;28;20413;-65
2022/05/17 04:43:13;;;;;;;7.78;2.80;;;;;;;;;;5105302;28;20034;-65
2022/05/17 04:45:39;;;;;;;7.35;2.47;;;;;;;;;;5102741;28;20020;-65
2022/05/17 04:48:04;;;;;;;7.43;2.47;;;;;;;;;;5105605;28;20031;-66
2022/05/17 04:50:30;;;;;;;7.10;2.78;;;;;;;;;;5108884;28;20016;-66
2022/05/17 04:52:55;;;;;;;9.85;2.83;;;;;;;;;;5110111;28;20470;-65
2022/05/17 04:55:21;;;;;;;8.98;2.92;;;;;;;;;;5098500;28;20059;-65
2022/05/17 04:57:46;;;;;;;6.95;2.85;;;;;;;;;;5084270;28;20065;-65
2022/05/17 05:00:14;;;;;;;10.93;3.22;;;;;;;;;;5107516;28;20054;-68
2022/05/17 05:02:39;;;;;;;7.13;2.33;;;;;;;;;;5109632;28;20485;-66
2022/05/17 05:05:05;;;;;;;9.02;2.25;;;;;;;;;;5109681;28;20032;-64
2022/05/17 05:07:30;;;;;;;8.13;2.05;;;;;;;;;;5109583;28;20044;-64
2022/05/17 05:09:56;;;;;;;5.45;2.15;;;;;;;;;;5107688;28;20047;-67
2022/05/17 05:12:21;;;;;;;9.98;2.53;;;;;;;;;;5107482;28;20478;-66
2022/05/17 05:14:46;;;;;;;7.22;2.40;;;;;;;;;;5107169;28;20031;-66
2022/05/17 05:17:12;;;;;;;8.32;2.33;;;;;;;;;;5108960;28;20028;-67
2022/05/17 05:19:37;;;;;;;9.27;2.63;;;;;;;;;;5109994;28;20450;-66
2022/05/17 05:22:03;;;;;;;9.82;2.65;;;;;;;;;;5112983;28;20020;-66
2022/05/17 05:24:29;;;;;;;9.68;3.15;;;;;;;;;;5110528;28;20024;-67
2022/05/17 05:26:54;;;;;;;9.38;2.70;;;;;;;;;;5097057;28;20028;-67
2022/05/17 05:29:19;;;;;;;9.55;2.85;;;;;;;;;;5084639;28;20028;-67
2022/05/17 05:31:45;;;;;;;8.25;2.60;;;;;;;;;;5086074;28;20457;-66
2022/05/17 05:34:10;;;;;;;8.07;2.80;;;;;;;;;;5098165;28;20059;-67
2022/05/17 05:36:35;;;;;;;6.32;2.80;;;;;;;;;;5100395;28;20430;-66
2022/05/17 05:39:01;;;;;;;7.78;2.97;;;;;;;;;;5086938;28;20022;-67
2022/05/17 05:41:26;;;;;;;10.65;3.00;;;;;;;;;;5084768;28;20107;-67
2022/05/17 05:43:51;;;;;;;7.15;3.08;;;;;;;;;;5106469;28;20037;-69
2022/05/17 05:46:16;;;;;;;6.15;2.92;;;;;;;;;;5096128;28;20046;-68
2022/05/17 05:48:42;;;;;;;9.40;3.08;;;;;;;;;;5088274;28;20431;-68
2022/05/17 05:51:08;;;;;;;7.72;3.00;;;;;;;;;;5086868;28;20130;-66
2022/05/17 05:53:33;;;;;;;9.05;3.08;;;;;;;;;;5084878;28;20111;-66
2022/05/17 05:56:01;;;;;;;8.45;3.25;;;;;;;;;;5084746;28;20027;-67
2022/05/17 05:58:27;;;;;;;6.65;2.95;;;;;;;;;;5084844;28;20016;-67
2022/05/17 06:00:53;;;;;;;9.60;3.28;;;;;;;;;;5088348;28;20048;-66
2022/05/17 06:03:19;;;;;;;8.60;3.45;;;;;;;;;;5086496;28;20024;-67
2022/05/17 06:05:44;;;;;;;7.50;3.15;;;;;;;;;;5085501;28;20510;-67
2022/05/17 06:08:14;;;;;;;9.38;3.00;;;;;;;;;;5068527;28;20067;-67
2022/05/17 06:10:41;;;;;;;11.75;4.07;;;;;;;;;;5082746;28;20361;-67
2022/05/17 06:13:07;;;;;;;11.88;4.40;;;;;;;;;;5088132;28;20506;-67
2022/05/17 06:15:33;;;;;;;10.63;4.10;;;;;;;;;;5092141;28;20114;-67
2022/05/17 06:18:01;;;;;;;11.05;4.35;;;;;;;;;;5095107;28;20100;-67
2022/05/17 06:20:26;;;;;;;11.88;4.18;;;;;;;;;;5083336;28;20594;-67
2022/05/17 06:22:52;;;;;;;12.02;4.70;;;;;;;;;;5087142;28;20028;-67
2022/05/17 06:25:18;;;;;;;12.27;4.60;;;;;;;;;;5081409;28;20387;-66
2022/05/17 06:27:44;;;;;;;11.20;4.85;;;;;;;;;;5084424;28;20020;-67
2022/05/17 06:30:11;;;;;;;10.93;5.00;;;;;;;;;;5064272;28;20027;-67
2022/05/17 06:32:37;;;;;;;11.13;5.05;;;;;;;;;;5085412;28;20024;-67
2022/05/17 06:35:02;;;;;;;11.63;5.75;;;;;;;;;;5085633;28;20032;-66
2022/05/17 06:37:27;;;;;;;12.05;4.80;;;;;;;;;;5084266;28;20144;-67
2022/05/17 06:39:52;;;;;;;14.85;5.75;;;;;;;;;;5065533;28;20375;-67
2022/05/17 06:42:18;;;;;;;8.05;5.20;;;;;;;;;;5083056;28;20120;-67
2022/05/17 06:44:43;;;;;;;11.20;5.60;;;;;;;;;;5083722;28;20122;-67
2022/05/17 06:47:08;;;;;;;11.98;5.38;;;;;;;;;;5086309;28;20344;-67
2022/05/17 06:49:37;;;;;;;9.88;5.68;;;;;;;;;;5083289;28;20020;-67
2022/05/17 06:52:03;;;;;;;12.98;6.03;;;;;;;;;;5102856;28;20525;-69
2022/05/17 06:54:28;;;;;;;11.82;5.55;;;;;;;;;;5101605;28;20114;-67
2022/05/17 06:56:54;;;;;;;9.20;5.43;;;;;;;;;;5105371;28;20044;-68
2022/05/17 06:59:19;;;;;;;10.95;5.82;;;;;;;;;;5100851;28;20051;-67
2022/05/17 07:01:44;;;;;;;9.95;6.40;;;;;;;;;;5106594;28;20031;-67
2022/05/17 07:04:10;;;;;;;11.10;6.13;;;;;;;;;;5107049;28;20197;-68
2022/05/17 07:06:35;;;;;;;11.38;5.47;;;;;;;;;;5104622;28;20035;-68
2022/05/17 07:09:01;;;;;;;10.23;5.38;;;;;;;;;;5103683;28;20059;-68
2022/05/17 07:14:10;;;;;;;15.13;6.47;;;;;;;;;;5102734;28;20054;-67
2022/05/17 07:16:35;;;;;;;10.35;6.38;;;;;;;;;;5106179;28;20027;-68
2022/05/17 07:19:01;;;;;;;8.98;5.22;;;;;;;;;;5105099;28;20034;-68
2022/05/17 07:21:26;;;;;;;9.93;5.68;;;;;;;;;;5104697;28;20019;-67
2022/05/17 07:23:52;;;;;;;11.60;6.03;;;;;;;;;;5104694;28;20015;-67
2022/05/17 07:26:17;;;;;;;8.43;5.45;;;;;;;;;;5104339;28;20015;-67
2022/05/17 07:28:44;;;;;;;8.75;5.55;;;;;;;;;;5089767;28;20028;-67
2022/05/17 07:31:10;;;;;;;8.98;5.28;;;;;;;;;;5083773;28;20059;-67
2022/05/17 07:33:35;;;;;;;8.48;5.30;;;;;;;;;;5083457;28;20472;-67
2022/05/17 07:36:01;;;;;;;8.82;5.10;;;;;;;;;;5083339;28;20408;-67
2022/05/17 07:38:27;;;;;;;7.97;4.15;;;;;;;;;;5081175;28;20153;-67
2022/05/17 07:40:53;;;;;;;9.43;4.63;;;;;;;;;;5083007;28;20043;-67
2022/05/17 07:43:19;;;;;;;9.95;4.95;;;;;;;;;;5084361;28;20367;-67
2022/05/17 07:45:49;;;;;;;9.38;4.97;;;;;;;;;;5063210;28;20471;-68
2022/05/17 07:48:16;;;;;;;6.88;5.03;;;;;;;;;;5093131;28;20030;-66
2022/05/17 07:50:41;;;;;;;7.07;4.50;;;;;;;;;;5086334;28;20026;-66
2022/05/17 07:53:08;;;;;;;8.25;6.13;;;;;;;;;;5104861;28;20024;-67
2022/05/17 07:55:34;;;;;;;9.27;5.30;;;;;;;;;;5101085;28;20155;-67
2022/05/17 07:57:59;;;;;;;8.82;5.38;;;;;;;;;;5105446;28;20028;-67
2022/05/17 08:00:24;;;;;;;5.88;4.63;;;;;;;;;;5101640;28;20387;-66
2022/05/17 08:02:50;;;;;;;7.20;4.70;;;;;;;;;;5104119;28;20496;-67
2022/05/17 08:05:16;;;;;;;6.40;4.40;;;;;;;;;;5097896;28;20050;-67
2022/05/17 08:07:41;;;;;;;10.20;5.40;;;;;;;;;;5065699;28;20494;-67
2022/05/17 08:10:06;;;;;;;8.00;4.78;;;;;;;;;;5080753;28;20036;-66
2022/05/17 08:12:32;;;;;;;9.25;5.40;;;;;;;;;;5082297;28;20032;-67
2022/05/17 08:14:57;;;;;;;6.88;5.50;;;;;;;;;;5080143;28;20107;-67
2022/05/17 08:17:23;;;;;;;7.57;6.10;;;;;;;;;;5083897;28;20032;-66
2022/05/17 08:19:49;;;;;;;7.15;5.40;;;;;;;;;;5083176;28;20024;-67
2022/05/17 08:22:14;;;;;;;8.90;5.82;;;;;;;;;;5086256;28;20031;-69
2022/05/17 08:27:36;;;;;;;5.35;3.90;;;;;;;;;;5085128;28;20100;-65
2022/05/17 08:30:03;;;;;;;5.97;4.20;;;;;;;;;;5086704;28;20478;-67
2022/05/17 08:35:13;;;;;;;5.53;4.47;;;;;;;;;;5107109;28;20026;-66
2022/05/17 08:37:38;;;;;;;7.28;5.10;;;;;;;;;;5083573;28;20267;-67
2022/05/17 08:40:04;;;;;;;5.25;4.75;;;;;;;;;;5089064;28;20020;-65
2022/05/17 08:42:34;;;;;;;8.02;5.10;;;;;;;;;;5086898;28;20671;-67
2022/05/17 08:45:05;;;;;;;5.88;4.93;;;;;;;;;;5087364;28;20050;-66
2022/05/17 08:47:39;;;;;;;5.57;4.18;;;;;;;;;;5085746;28;20209;-65
2022/05/17 08:50:09;;;;;;;5.80;4.90;;;;;;;;;;5087970;28;20097;-66
2022/05/17 08:52:36;;;;;;;6.60;4.47;;;;;;;;;;5089330;28;20100;-64
2022/05/17 08:55:24;;;;;;;7.18;5.03;;;;;;;;;;5092787;28;20020;-65
2022/05/17 08:57:51;;;;;;;6.32;5.07;;;;;;;;;;5088047;28;20456;-66
2022/05/17 09:00:19;;;;;;;7.93;4.72;;;;;;;;;;5087594;28;20016;-66
2022/05/17 09:02:50;;;;;;;6.45;4.22;;;;;;;;;;5087679;28;20416;-66
2022/05/17 09:05:15;;;;;;;8.75;5.10;;;;;;;;;;5088303;28;20024;-66
2022/05/17 09:07:48;;;;;;;6.63;4.53;;;;;;;;;;5088843;28;20044;-66
2022/05/17 09:10:14;;;;;;;;;;;;;;;;;;5085859;28;20348;-66
2022/05/17 09:12:52;;;;;;;4.90;3.95;;;;;;;;;;5084142;28;20003;-66
2022/05/17 09:15:18;;;;;;;5.30;4.22;;;;;;;;;;5083094;28;20024;-65
2022/05/17 09:17:44;;;;;;;7.68;4.72;;;;;;;;;;5087924;28;20135;-66
2022/05/17 09:20:13;;;;;;;7.28;4.57;;;;;;;;;;5100147;28;20028;-66
2022/05/17 09:22:38;;;;;;;7.43;4.78;;;;;;;;;;5069791;28;20047;-67
2022/05/17 09:25:18;;;;;;;4.80;4.13;;;;;;;;;;5105789;28;20054;-65
2022/05/17 09:27:45;;;;;;;7.38;5.50;;;;;;;;;;5106227;28;20043;-66
2022/05/17 09:30:12;;;;;;;6.32;4.72;;;;;;;;;;5107396;28;20011;-66
2022/05/17 09:32:44;;;;;;;5.53;4.10;;;;;;;;;;5105593;28;20020;-66
2022/05/17 09:35:17;;;;;;;4.03;3.13;;;;;;;;;;5106162;28;20016;-66
2022/05/17 09:37:44;;;;;;;4.97;3.45;;;;;;;;;;5105755;28;20039;-66
2022/05/17 09:40:11;;;;;;;4.72;3.60;;;;;;;;;;5105993;28;20089;-67
2022/05/17 09:42:50;;;;;;;6.85;3.22;;;;;;;;;;5110792;28;20073;-67
2022/05/17 09:45:17;;;;;;;5.57;3.63;;;;;;;;;;5105747;28;20022;-66
2022/05/17 09:47:54;;;;;;;5.13;2.58;;;;;;;;;;5107263;27;20024;-66
2022/05/17 09:53:04;;;;;;;5.00;2.33;;;;;;;;;;5107793;28;20230;-65
2022/05/17 09:55:31;;;;;;;4.55;2.25;;;;;;;;;;5098770;28;20365;-65
2022/05/17 09:58:00;;;;;;;4.95;2.30;;;;;;;;;;5087388;28;20440;-65
2022/05/17 10:00:31;;;;;;;4.43;1.98;;;;;;;;;;5083407;28;20039;-66
2022/05/17 10:03:00;;;;;;;5.78;2.10;;;;;;;;;;5086945;28;20016;-65
2022/05/17 10:05:27;;;;;;;2.85;1.80;;;;;;;;;;5086307;28;20072;-66
2022/05/17 10:08:03;;;;;;;5.03;2.70;;;;;;;;;;5068743;28;20075;-66
2022/05/17 10:10:31;;;;;;;5.03;2.75;;;;;;;;;;5079084;28;20067;-66
2022/05/17 10:13:00;;;;;;;5.47;2.55;;;;;;;;;;5067958;28;20539;-67
2022/05/17 10:15:30;;;;;;;4.75;2.53;;;;;;;;;;5083287;28;20019;-65
2022/05/17 10:17:59;;;;;;;3.17;2.25;;;;;;;;;;5084510;28;20055;-65
2022/05/17 10:20:27;;;;;;;3.17;2.53;;;;;;;;;;5084484;28;20035;-66
2022/05/17 10:22:58;;;;;;;4.05;2.80;;;;;;;;;;5083344;28;20016;-65
2022/05/17 10:25:42;;;;;;;6.18;2.80;;;;;;;;;;5080852;28;20143;-64
2022/05/17 10:28:13;;;;;;;5.00;2.72;;;;;;;;;;5085791;28;20374;-65
2022/05/17 10:30:54;;;;;;;5.65;3.20;;;;;;;;;;5078687;28;20055;-65
2022/05/17 10:33:26;;;;;;;7.07;3.03;;;;;;;;;;5102725;28;20020;-66
2022/05/17 10:35:55;;;;;;;5.68;3.00;;;;;;;;;;5103905;28;20551;-65
2022/05/17 10:38:22;;;;;;;6.28;3.25;;;;;;;;;;5104953;28;20031;-65
2022/05/17 10:40:49;;;;;;;3.97;3.15;;;;;;;;;;5101167;28;20331;-65
2022/05/17 10:43:17;;;;;;;4.38;2.47;;;;;;;;;;5106722;28;20483;-65
2022/05/17 10:45:44;;;;;;;8.13;3.28;;;;;;;;;;5098641;28;20064;-65
2022/05/17 10:48:15;;;;;;;5.47;3.13;;;;;;;;;;5106125;28;20104;-64
2022/05/17 10:50:43;;;;;;;6.53;4.07;;;;;;;;;;5105423;28;20026;-65
2022/05/17 10:53:15;;;;;;;8.20;4.00;;;;;;;;;;5106495;28;20023;-66
2022/05/17 10:55:47;;;;;;;7.47;4.40;;;;;;;;;;5081569;28;20413;-67
2022/05/17 10:58:35;;;;;;;7.80;4.53;;;;;;;;;;5106898;28;20030;-65
2022/05/17 11:01:24;;;;;;;5.93;4.63;;;;;;;;;;5105941;28;20442;-66
2022/05/17 11:04:08;;;;;;;6.15;5.07;;;;;;;;;;5089140;28;20051;-65
2022/05/17 11:06:50;;;;;;;6.97;5.03;;;;;;;;;;5103731;28;20031;-65
2022/05/17 11:09:34;;;;;;;6.53;5.90;;;;;;;;;;5102124;28;20083;-65
2022/05/17 11:12:08;;;;;;;9.65;5.45;;;;;;;;;;5100628;28;20509;-65
2022/05/17 11:14:47;;;;;;;7.22;5.10;;;;;;;;;;5101090;28;20023;-64
2022/05/17 11:17:12;;;;;;;7.07;5.03;;;;;;;;;;5104309;28;20027;-67
2022/05/17 11:19:45;;;;;;;7.43;4.57;;;;;;;;;;5103295;28;20027;-65
2022/05/17 11:22:11;;;;;;;7.80;4.13;;;;;;;;;;5104925;28;20259;-66
2022/05/17 11:24:52;;;;;;;5.57;4.50;;;;;;;;;;5107966;28;20020;-66
2022/05/17 11:27:33;;;;;;;6.47;4.40;;;;;;;;;;5098766;28;20044;-65
2022/05/17 11:30:05;;;;;;;7.85;4.25;;;;;;;;;;5080597;28;20081;-65
2022/05/17 11:32:36;;;;;;;9.82;5.45;;;;;;;;;;5066848;28;20430;-66
2022/05/17 11:35:22;;;;;;;6.32;4.68;;;;;;;;;;5064275;28;20028;-65
2022/05/17 11:37:48;;;;;;;10.18;4.60;;;;;;;;;;5034686;28;20094;-65
2022/05/17 11:40:33;;;;;;;7.78;5.57;;;;;;;;;;5062134;28;20024;-63
2022/05/17 11:45:51;;;;;;;11.85;5.97;;;;;;;;;;5062039;28;20032;-65
2022/05/17 11:48:23;;;;;;;8.75;5.53;;;;;;;;;;5066787;28;20139;-65
2022/05/17 11:50:51;;;;;;;7.68;6.28;;;;;;;;;;5063555;28;20025;-65
2022/05/17 11:53:23;;;;;;;8.30;6.93;;;;;;;;;;5064928;28;20024;-65
2022/05/17 11:56:07;;;;;;;8.07;6.05;;;;;;;;;;5060580;28;20051;-64
2022/05/17 11:58:32;;;;;;;9.70;6.65;;;;;;;;;;5074337;28;20023;-65
2022/05/17 12:00:57;;;;;;;9.13;7.20;;;;;;;;;;5091735;28;20414;-65
2022/05/17 12:03:46;;;;;;;11.77;6.73;;;;;;;;;;5104497;28;20468;-66
2022/05/17 12:06:27;;;;;;;7.28;6.38;;;;;;;;;;5105381;28;20312;-66
2022/05/17 12:08:53;;;;;;;7.68;6.22;;;;;;;;;;5100579;28;20070;-66
2022/05/17 12:11:31;;;;;;;7.57;6.35;;;;;;;;;;5103344;28;20463;-65
2022/05/17 12:14:15;;;;;;;9.98;7.50;;;;;;;;;;5102459;28;20024;-66
2022/05/17 12:16:46;;;;;;;11.32;6.65;;;;;;;;;;5106080;28;20047;-65
2022/05/17 12:19:14;;;;;;;10.55;7.63;;;;;;;;;;5107202;28;20110;-66
2022/05/17 12:21:58;;;;;;;9.98;7.70;;;;;;;;;;5104422;28;20469;-66
2022/05/17 12:24:26;;;;;;;8.70;6.32;;;;;;;;;;5103880;28;20019;-65
2022/05/17 12:26:57;;;;;;;10.02;7.72;;;;;;;;;;5103614;28;20073;-66
2022/05/17 12:32:10;;;;;;;11.13;7.47;;;;;;;;;;5105607;28;20099;-65
2022/05/17 12:34:35;;;;;;;10.27;7.28;;;;;;;;;;5104182;28;20086;-64
2022/05/17 12:37:08;;;;;;;10.55;9.10;;;;;;;;;;5104043;28;20042;-66
2022/05/17 12:45:02;;;;;;;10.57;7.90;;;;;;;;;;5102123;28;20442;-65
2022/05/17 12:47:41;;;;;;;12.55;8.75;;;;;;;;;;5093353;28;20039;-65
2022/05/17 12:50:12;;;;;;;10.65;7.15;;;;;;;;;;5083815;28;20024;-65
2022/05/17 12:52:39;;;;;;;9.73;7.63;;;;;;;;;;5068300;28;20030;-66
2022/05/17 12:55:08;;;;;;;10.00;8.98;;;;;;;;;;5079630;28;20105;-66
2022/05/17 12:57:35;;;;;;;11.75;9.10;;;;;;;;;;5083894;28;20055;-66
2022/05/17 13:00:15;;;;;;;10.43;9.20;;;;;;;;;;5080994;28;20318;-65
2022/05/17 13:02:47;;;;;;;10.50;9.25;;;;;;;;;;5083947;28;20119;-65
2022/05/17 13:05:12;;;;;;;;;;;;;;;;;;5084491;28;20046;-66
2022/05/17 13:07:38;;;;;;;10.75;8.85;;;;;;;;;;5084222;28;19984;-66
2022/05/17 13:10:05;;;;;;;10.85;8.50;;;;;;;;;;5082871;28;20028;-65
2022/05/17 13:12:32;;;;;;;13.30;8.82;;;;;;;;;;5096622;28;20056;-64
2022/05/17 13:14:58;;;;;;;14.30;8.95;;;;;;;;;;5084194;28;20068;-65
2022/05/17 13:17:33;;;;;;;10.70;7.57;;;;;;;;;;5087756;28;20031;-66
2022/05/17 13:20:01;;;;;;;12.05;8.02;;;;;;;;;;5084430;28;20067;-65
2022/05/17 13:22:27;;;;;;;11.95;7.63;;;;;;;;;;5087025;28;20077;-65
2022/05/17 13:25:00;;;;;;;14.15;7.35;;;;;;;;;;5094828;28;20008;-65
2022/05/17 13:27:28;;;;;;;11.25;8.45;;;;;;;;;;5103493;28;20545;-65
2022/05/17 13:29:57;;;;;;;11.73;7.47;;;;;;;;;;5092037;28;20028;-65
2022/05/17 13:32:26;;;;;;;10.48;7.10;;;;;;;;;;5088639;28;20085;-65
2022/05/17 13:35:09;;;;;;;8.68;7.25;;;;;;;;;;5084364;28;20012;-65
2022/05/17 13:37:35;;;;;;;10.60;7.03;;;;;;;;;;5086238;28;20432;-66
2022/05/17 13:40:02;;;;;;;11.73;8.60;;;;;;;;;;5083350;28;20016;-65
2022/05/17 13:42:29;;;;;;;9.65;7.82;;;;;;;;;;5084714;28;20012;-66
2022/05/17 13:45:03;;;;;;;13.10;9.43;;;;;;;;;;5081680;28;20012;-66
2022/05/17 13:47:34;;;;;;;12.02;8.65;;;;;;;;;;5087040;28;20031;-65
2022/05/17 13:50:00;;;;;;;11.95;7.78;;;;;;;;;;5083968;28;20487;-65
2022/05/17 13:52:30;;;;;;;13.30;8.57;;;;;;;;;;5087438;28;20107;-66
2022/05/17 13:55:18;;;;;;;10.98;8.32;;;;;;;;;;5083302;28;20016;-65
2022/05/17 13:57:52;;;;;;;11.73;7.88;;;;;;;;;;5085463;28;20016;-66
2022/05/17 14:00:17;;;;;;;10.80;7.30;;;;;;;;;;5081343;28;20111;-66
2022/05/17 14:02:49;;;;;;;12.80;8.30;;;;;;;;;;5086264;28;20091;-66
2022/05/17 14:05:17;;;;;;;8.80;7.35;;;;;;;;;;5087786;28;20016;-65
2022/05/17 14:07:51;;;;;;;12.65;8.40;;;;;;;;;;5108603;28;20082;-65
2022/05/17 14:13:16;;;;;;;13.90;7.55;;;;;;;;;;5106079;28;20118;-66
2022/05/17 14:15:41;;;;;;;9.68;7.95;;;;;;;;;;5102786;28;20034;-66
2022/05/17 14:18:11;;;;;;;11.98;7.40;;;;;;;;;;5105127;28;20298;-66
2022/05/17 14:20:36;;;;;;;8.77;6.63;;;;;;;;;;5107216;28;20027;-66
2022/05/17 14:23:01;;;;;;;8.15;5.90;;;;;;;;;;5106274;28;20024;-65
2022/05/17 14:25:27;;;;;;;9.52;6.93;;;;;;;;;;5102511;28;20023;-65
2022/05/17 14:27:56;;;;;;;10.93;7.03;;;;;;;;;;5107012;28;20080;-66
2022/05/17 14:30:21;;;;;;;8.43;6.82;;;;;;;;;;5104834;28;20028;-65
2022/05/17 14:32:47;;;;;;;9.93;6.20;;;;;;;;;;5106309;28;20098;-65
2022/05/17 14:35:16;;;;;;;9.25;7.15;;;;;;;;;;5102963;28;20027;-66
2022/05/17 14:37:41;;;;;;;9.70;7.25;;;;;;;;;;5089778;28;20452;-65
2022/05/17 14:40:07;;;;;;;8.90;7.57;;;;;;;;;;5097726;28;20032;-65
2022/05/17 14:42:34;;;;;;;8.75;6.45;;;;;;;;;;5086483;28;20252;-66
2022/05/17 14:45:00;;;;;;;12.32;6.68;;;;;;;;;;5082877;28;20024;-65
2022/05/17 14:47:25;;;;;;;10.23;7.03;;;;;;;;;;5087507;28;20401;-66
2022/05/17 14:49:53;;;;;;;9.95;6.88;;;;;;;;;;5084210;28;20294;-65
2022/05/17 14:52:18;;;;;;;10.25;6.47;;;;;;;;;;5067227;28;20439;-64
2022/05/17 14:54:43;;;;;;;13.73;6.20;;;;;;;;;;5082642;28;20036;-66
2022/05/17 14:57:09;;;;;;;8.90;5.93;;;;;;;;;;5082584;28;20472;-65
2022/05/17 14:59:34;;;;;;;12.57;7.32;;;;;;;;;;5083225;28;20739;-66
2022/05/17 15:01:59;;;;;;;10.07;5.82;;;;;;;;;;5083735;28;20012;-66
2022/05/17 15:04:27;;;;;;;7.50;6.03;;;;;;;;;;5085263;28;20031;-66
2022/05/17 15:06:55;;;;;;;7.50;5.55;;;;;;;;;;5085801;28;20078;-66
2022/05/17 15:09:23;;;;;;;8.00;5.47;;;;;;;;;;5082610;28;20510;-65
2022/05/17 15:11:49;;;;;;;6.00;5.28;;;;;;;;;;5083386;28;20421;-65
2022/05/17 15:14:14;;;;;;;8.23;5.80;;;;;;;;;;5095737;28;20023;-66